Time;durP1;ratioP1;P1;durP2;ratioP2;P2;SDS_P1;SDS_P2;PMS_P1;PMS_P2;Temp;Humidity;BMP_temperature;BMP_pressure;BME280_temperature;BME280_humidity;BME280_pressure;Samples;Min_cycle;Max_cycle;Signal;HPM_P1;HPM_P2
2022/02/09 00:04:17;;;;;;;4.28;2.13;;;10.60;61.40;;;;;;5020125;28;20253;-54
2022/02/09 00:07:01;;;;;;;8.20;1.70;;;10.60;61.30;;;;;;5002823;28;20025;-54
2022/02/09 00:09:27;;;;;;;4.13;1.67;;;10.70;61.30;;;;;;5024373;28;20101;-51
2022/02/09 00:24:58;;;;;;;5.30;1.80;;;10.80;60.80;;;;;;5024581;28;20068;-51
2022/02/09 01:57:11;;;;;;;4.13;1.42;;;10.60;61.20;;;;;;5007754;28;20096;-48
2022/02/09 01:59:38;;;;;;;5.35;1.70;;;10.70;61.00;;;;;;5018452;28;20034;-51
2022/02/09 02:02:05;;;;;;;4.38;1.52;;;10.70;60.90;;;;;;5011068;28;20392;-48
2022/02/09 02:04:31;;;;;;;4.43;1.63;;;10.70;60.80;;;;;;5010621;28;20465;-50
2022/02/09 02:07:08;;;;;;;3.45;1.60;;;10.70;60.90;;;;;;5018420;28;20021;-53
2022/02/09 02:09:37;;;;;;;4.35;1.80;;;10.70;60.90;;;;;;5011112;28;20038;-50
2022/02/09 02:12:17;;;;;;;2.95;1.55;;;10.70;60.80;;;;;;4997129;28;20021;-52
2022/02/09 02:14:48;;;;;;;3.65;1.65;;;10.70;60.70;;;;;;5006815;28;20041;-49
2022/02/09 02:35:06;;;;;;;4.07;1.52;;;10.70;60.00;;;;;;5024598;28;20037;-50
2022/02/09 02:58:55;;;;;;;6.13;1.95;;;10.80;59.50;;;;;;5018664;28;20036;-54
2022/02/09 03:14:56;;;;;;;4.57;1.65;;;10.80;59.30;;;;;;5018767;28;20037;-54
2022/02/09 03:17:31;;;;;;;5.07;1.70;;;10.80;59.30;;;;;;5003219;28;20034;-53
2022/02/09 03:20:03;;;;;;;3.20;1.70;;;10.70;59.30;;;;;;5015968;28;20160;-56
2022/02/09 03:22:50;;;;;;;4.28;1.83;;;10.80;59.30;;;;;;5024121;28;20041;-49
2022/02/09 03:46:48;;;;;;;2.90;1.58;;;10.60;59.70;;;;;;5014389;28;19910;-54
2022/02/09 03:54:20;;;;;;;3.20;1.55;;;10.50;60.10;;;;;;5024802;28;20036;-51
2022/02/09 03:57:04;;;;;;;3.67;1.70;;;10.60;60.10;;;;;;5017222;28;20041;-53
2022/02/09 03:59:32;;;;;;;3.30;1.23;;;10.60;60.10;;;;;;5012634;28;20374;-49
2022/02/09 04:02:00;;;;;;;3.53;1.48;;;10.60;60.10;;;;;;4999675;28;20121;-52
2022/02/09 04:04:26;;;;;;;2.40;1.30;;;10.60;60.00;;;;;;5003798;28;20033;-56
2022/02/09 04:06:52;;;;;;;4.18;1.33;;;10.60;60.10;;;;;;5014772;28;20389;-49
2022/02/09 04:09:23;;;;;;;2.58;1.65;;;10.50;60.20;;;;;;5002299;28;20026;-53
2022/02/09 04:14:43;;;;;;;4.05;1.50;;;10.50;60.60;;;;;;5014144;28;20377;-50
2022/02/09 04:17:19;;;;;;;2.60;1.38;;;10.50;60.70;;;;;;5011870;28;20034;-54
2022/02/09 04:23:07;;;;;;;3.22;1.40;;;10.50;60.60;;;;;;5017593;28;20114;-51
2022/02/09 04:41:48;;;;;;;4.10;1.40;;;10.70;59.80;;;;;;5018151;28;20089;-54
2022/02/09 05:02:56;;;;;;;4.18;1.50;;;10.70;59.20;;;;;;5012792;28;20037;-53
2022/02/09 05:27:33;;;;;;;4.35;1.60;;;10.60;59.40;;;;;;4968950;28;20035;-51
2022/02/09 05:30:01;;;;;;;4.88;2.00;;;10.50;59.50;;;;;;5012413;28;20032;-53
2022/02/09 05:32:27;;;;;;;3.60;1.45;;;10.50;59.60;;;;;;4998383;28;20022;-55
2022/02/09 05:34:53;;;;;;;2.95;1.45;;;10.50;59.70;;;;;;5016328;28;20036;-55
2022/02/09 05:37:18;;;;;;;4.28;1.80;;;10.40;59.80;;;;;;5000103;28;20557;-49
2022/02/09 05:39:44;;;;;;;3.75;1.60;;;10.40;59.80;;;;;;5015753;28;20523;-53
2022/02/09 05:42:10;;;;;;;4.80;1.60;;;10.40;60.00;;;;;;5013034;28;20072;-60
2022/02/09 05:44:36;;;;;;;3.58;1.38;;;10.40;60.10;;;;;;5001801;28;20400;-52
2022/02/09 05:47:53;;;;;;;5.95;1.55;;;10.40;60.10;;;;;;5013606;28;20032;-52
2022/02/09 05:50:06;;;;;;;9.80;1.70;;;10.40;60.30;;;;;;5015921;28;20483;-56
2022/02/09 05:58:13;;;;;;;6.07;1.90;;;10.30;60.50;;;;;;5017350;28;20125;-54
2022/02/09 06:00:47;;;;;;;7.80;1.70;;;10.30;60.50;;;;;;5019754;28;20520;-52
2022/02/09 06:03:14;;;;;;;5.82;1.80;;;10.20;60.60;;;;;;5003517;28;20492;-55
2022/02/09 06:05:40;;;;;;;5.68;1.63;;;10.20;60.80;;;;;;5019087;28;20062;-53
2022/02/09 06:08:06;;;;;;;6.57;1.70;;;10.20;60.80;;;;;;5001548;28;20412;-51
2022/02/09 06:10:34;;;;;;;4.05;1.40;;;10.30;60.80;;;;;;5019149;28;20241;-54
2022/02/09 06:13:30;;;;;;;3.65;1.45;;;10.20;60.70;;;;;;5021791;28;20041;-54
2022/02/09 06:21:20;;;;;;;4.57;1.65;;;10.40;60.40;;;;;;5030034;28;20064;-53
2022/02/09 06:23:49;;;;;;;9.32;2.30;;;10.30;60.40;;;;;;5008741;28;20053;-51
2022/02/09 06:26:15;;;;;;;5.78;1.60;;;10.30;60.50;;;;;;5010864;28;20055;-54
2022/02/09 06:28:41;;;;;;;7.38;2.05;;;10.30;60.60;;;;;;4998996;28;20026;-56
2022/02/09 06:31:07;;;;;;;5.03;1.80;;;10.30;60.70;;;;;;5003862;28;20413;-53
2022/02/09 06:33:32;;;;;;;5.35;1.85;;;10.30;60.50;;;;;;5018356;28;20028;-51
2022/02/09 06:36:03;;;;;;;7.10;1.65;;;10.30;60.40;;;;;;5023441;28;20042;-52
2022/02/09 06:38:29;;;;;;;7.93;1.85;;;10.30;60.40;;;;;;5017291;28;20030;-58
2022/02/09 06:40:55;;;;;;;4.40;1.63;;;10.30;60.50;;;;;;5015693;28;20030;-53
2022/02/09 06:43:21;;;;;;;2.67;1.50;;;10.30;60.50;;;;;;5015713;28;20033;-54
2022/02/09 06:45:47;;;;;;;5.88;1.83;;;10.40;60.20;;;;;;4996889;28;20172;-55
2022/02/09 06:48:18;;;;;;;3.13;1.30;;;10.40;60.10;;;;;;5020049;28;20529;-51
2022/02/09 06:50:50;;;;;;;5.35;2.00;;;10.40;60.00;;;;;;5016588;28;20091;-52
2022/02/09 06:55:49;;;;;;;5.68;1.90;;;10.40;60.00;;;;;;5014344;28;20034;-55
2022/02/09 06:58:45;;;;;;;3.70;1.60;;;10.40;60.00;;;;;;5008244;28;20060;-54
2022/02/09 07:01:03;;;;;;;4.30;1.60;;;10.40;59.90;;;;;;5020973;28;20037;-54
2022/02/09 07:03:29;;;;;;;7.07;1.85;;;10.50;59.90;;;;;;5005624;28;20082;-57
2022/02/09 07:05:55;;;;;;;5.32;1.98;;;10.50;59.80;;;;;;5005215;28;20497;-54
2022/02/09 07:08:21;;;;;;;3.63;1.65;;;10.50;59.70;;;;;;5014219;28;20040;-55
2022/02/09 07:10:47;;;;;;;4.50;1.63;;;10.60;59.50;;;;;;5025399;28;20052;-54
2022/02/09 07:13:14;;;;;;;9.63;1.80;;;10.60;59.30;;;;;;5016809;28;20544;-53
2022/02/09 07:15:44;;;;;;;5.57;1.77;;;10.60;59.20;;;;;;5003459;28;20484;-57
2022/02/09 07:18:13;;;;;;;8.70;2.67;;;10.60;59.00;;;;;;5004929;28;20084;-51
2022/02/09 07:21:07;;;;;;;8.88;1.77;;;10.80;58.80;;;;;;5022122;28;20029;-56
2022/02/09 07:26:09;;;;;;;9.63;1.90;;;10.70;58.80;;;;;;5017708;28;20113;-54
2022/02/09 07:28:35;;;;;;;5.32;1.80;;;10.70;58.70;;;;;;5013727;28;20455;-53
2022/02/09 07:31:02;;;;;;;5.30;1.60;;;10.70;58.70;;;;;;5013396;28;20029;-57
2022/02/09 07:33:28;;;;;;;9.07;1.88;;;10.70;58.80;;;;;;5012967;28;20429;-52
2022/02/09 07:35:54;;;;;;;5.55;2.00;;;10.70;58.80;;;;;;4997857;28;20030;-55
2022/02/09 07:38:20;;;;;;;8.68;4.40;;;10.90;59.10;;;;;;5022118;28;20109;-58
2022/02/09 07:40:46;;;;;;;4.55;1.73;;;13.00;56.30;;;;;;5013783;28;20473;-53
2022/02/09 07:43:22;;;;;;;3.95;3.10;;;14.30;50.60;;;;;;5014148;28;20033;-53
2022/02/09 07:51:12;;;;;;;7.75;4.35;;;19.00;44.50;;;;;;5026145;28;20546;-52
2022/02/09 07:54:01;;;;;;;9.40;3.92;;;20.70;40.10;;;;;;5005883;28;20442;-57
2022/02/09 07:56:36;;;;;;;3.67;3.35;;;21.60;37.30;;;;;;5009492;28;20033;-57
2022/02/09 07:59:07;;;;;;;5.75;3.10;;;22.40;35.30;;;;;;5023522;28;20064;-56
2022/02/09 08:01:33;;;;;;;6.07;3.85;;;23.00;34.60;;;;;;4999616;28;20540;-56
2022/02/09 08:03:59;;;;;;;6.55;3.72;;;23.20;33.40;;;;;;5018664;28;20064;-57
2022/02/09 08:06:25;;;;;;;7.30;3.80;;;23.10;33.70;;;;;;5021453;28;20052;-52
2022/02/09 08:08:58;;;;;;;8.43;4.18;;;24.10;33.10;;;;;;4984499;28;20025;-56
2022/02/09 08:11:33;;;;;;;4.10;3.70;;;24.60;31.70;;;;;;4998880;28;20445;-54
2022/02/09 08:32:39;;;;;;;12.48;3.90;;;16.20;43.40;;;;;;5015172;28;20103;-52
2022/02/09 08:35:06;;;;;;;8.07;3.00;;;15.50;45.00;;;;;;5011986;28;20038;-55
2022/02/09 08:37:31;;;;;;;8.00;3.10;;;15.00;46.20;;;;;;5005947;28;20529;-54
2022/02/09 08:39:57;;;;;;;5.10;2.25;;;14.70;47.10;;;;;;5016713;28;20026;-51
2022/02/09 08:42:24;;;;;;;4.28;1.85;;;14.30;48.10;;;;;;5001900;28;20159;-54
2022/02/09 08:44:53;;;;;;;4.45;1.73;;;14.00;48.80;;;;;;4994592;28;20125;-56
2022/02/09 08:47:19;;;;;;;3.67;1.80;;;13.80;49.60;;;;;;4996702;28;20143;-56
2022/02/09 08:49:45;;;;;;;7.53;2.47;;;13.60;49.90;;;;;;5010776;28;20033;-58
2022/02/09 08:52:11;;;;;;;6.50;2.13;;;13.50;50.10;;;;;;5011231;28;20105;-55
2022/02/09 08:54:37;;;;;;;7.60;2.38;;;13.50;50.40;;;;;;5009170;28;20068;-54
2022/02/09 08:57:08;;;;;;;3.28;1.63;;;13.50;50.40;;;;;;5027215;28;20038;-53
2022/02/09 08:59:35;;;;;;;4.18;1.80;;;13.40;50.70;;;;;;5020109;28;20108;-58
2022/02/09 09:02:07;;;;;;;7.22;2.58;;;13.30;51.10;;;;;;5011910;28;20149;-57
2022/02/09 09:04:55;;;;;;;9.70;2.00;;;13.20;51.30;;;;;;5012502;28;20456;-56
2022/02/09 09:07:27;;;;;;;4.78;1.85;;;13.20;51.50;;;;;;5011429;28;20112;-52
2022/02/09 09:10:06;;;;;;;5.75;1.88;;;13.20;51.90;;;;;;5017084;28;20021;-53
2022/02/09 09:59:40;;;;;;;5.72;2.70;;;13.60;51.10;;;;;;5010287;28;20083;-54
2022/02/09 10:02:27;;;;;;;6.20;2.10;;;13.60;51.00;;;;;;5020609;28;20473;-57
2022/02/09 10:32:51;;;;;;;7.00;2.10;;;14.10;49.00;;;;;;5012064;28;20384;-53
2022/02/09 10:35:37;;;;;;;6.47;2.33;;;14.10;48.90;;;;;;5015461;28;20025;-56
2022/02/09 10:38:34;;;;;;;6.78;2.30;;;14.00;48.20;;;;;;5010031;28;20033;-55
2022/02/09 10:41:16;;;;;;;4.90;2.00;;;14.00;48.50;;;;;;5002439;28;20033;-56
2022/02/09 10:43:45;;;;;;;3.90;2.05;;;13.90;48.70;;;;;;5002699;28;20041;-58
2022/02/09 10:46:16;;;;;;;5.35;2.00;;;13.90;48.60;;;;;;5002117;28;20048;-61
2022/02/09 10:48:57;;;;;;;6.85;2.00;;;14.00;48.50;;;;;;5014043;28;20057;-54
2022/02/09 10:51:32;;;;;;;10.02;2.50;;;14.00;48.10;;;;;;4996873;28;20040;-54
2022/02/09 10:54:18;;;;;;;11.32;2.50;;;14.00;48.10;;;;;;5008721;28;20032;-54
2022/02/09 10:56:52;;;;;;;6.55;2.50;;;14.10;48.10;;;;;;5012668;28;20464;-54
2022/02/09 10:59:23;;;;;;;7.07;2.50;;;14.30;47.90;;;;;;5000791;28;20057;-56
2022/02/09 11:01:51;;;;;;;18.45;3.03;;;14.40;47.70;;;;;;5012776;28;20061;-58
2022/02/09 11:04:17;;;;;;;5.97;2.65;;;14.40;47.30;;;;;;5000838;28;20039;-58
2022/02/09 11:06:45;;;;;;;12.27;2.72;;;14.50;47.30;;;;;;5005197;28;20037;-55
2022/02/09 11:09:13;;;;;;;8.65;2.30;;;14.50;47.20;;;;;;5027586;28;20049;-55
2022/02/09 11:11:41;;;;;;;18.40;3.08;;;14.60;47.20;;;;;;5017402;28;20030;-57
2022/02/09 11:14:19;;;;;;;6.03;2.58;;;14.70;47.10;;;;;;5017791;28;20068;-56
2022/02/09 11:16:52;;;;;;;6.93;2.70;;;14.70;47.00;;;;;;4997307;28;20415;-58
2022/02/09 11:19:19;;;;;;;8.52;2.50;;;14.80;47.10;;;;;;4998065;28;20049;-58
2022/02/09 11:21:51;;;;;;;5.55;2.20;;;14.80;46.70;;;;;;5002452;28;20099;-54
2022/02/09 11:24:26;;;;;;;8.02;2.10;;;14.90;46.60;;;;;;5020922;28;20081;-60
2022/02/09 11:26:59;;;;;;;6.53;2.55;;;14.70;46.60;;;;;;5014840;28;20040;-54
2022/02/09 11:32:17;;;;;;;5.88;3.00;;;14.60;46.80;;;;;;5011678;28;20063;-55
2022/02/09 11:35:34;;;;;;;7.40;3.10;;;14.60;47.50;;;;;;4998997;28;20030;-49
2022/02/09 11:40:44;;;;;;;6.32;3.10;;;15.80;45.10;;;;;;5012809;28;20477;-53
2022/02/09 11:57:09;;;;;;;6.40;2.92;;;14.80;46.70;;;;;;5013378;28;20072;-57
2022/02/09 12:10:52;;;;;;;7.40;1.92;;;15.00;46.10;;;;;;5008941;28;20539;-52
2022/02/09 12:13:52;;;;;;;10.27;2.42;;;14.90;45.90;;;;;;5001830;28;20033;-53
2022/02/09 12:19:11;;;;;;;7.93;1.90;;;15.00;46.30;;;;;;5008611;28;20096;-55
2022/02/09 12:22:04;;;;;;;7.63;2.15;;;15.00;46.00;;;;;;5012472;28;20018;-54
2022/02/09 12:24:35;;;;;;;8.20;2.30;;;15.10;46.00;;;;;;4999489;28;20037;-53
2022/02/09 12:27:06;;;;;;;5.82;2.60;;;15.10;46.00;;;;;;5012305;28;20209;-55
2022/02/09 12:29:35;;;;;;;5.15;2.25;;;15.20;46.10;;;;;;5006458;28;20473;-54
2022/02/09 12:32:14;;;;;;;7.95;2.47;;;15.20;46.00;;;;;;5020378;28;20021;-50
2022/02/09 12:34:59;;;;;;;5.97;2.20;;;15.30;46.00;;;;;;5002642;28;20030;-56
2022/02/09 12:37:39;;;;;;;4.28;2.20;;;15.40;45.60;;;;;;5005245;28;20156;-52
2022/02/09 12:40:19;;;;;;;9.38;2.85;;;15.50;45.20;;;;;;4994439;28;20026;-55
2022/02/09 12:42:48;;;;;;;5.95;1.90;;;15.70;44.70;;;;;;5007090;28;20126;-54
2022/02/09 12:45:23;;;;;;;8.60;2.38;;;16.00;44.20;;;;;;4996365;28;20061;-56
2022/02/09 12:48:02;;;;;;;6.93;2.20;;;16.40;43.90;;;;;;5000829;28;20161;-56
2022/02/09 12:50:40;;;;;;;8.82;2.30;;;17.00;42.20;;;;;;5011669;28;20030;-57
2022/02/09 12:53:08;;;;;;;8.93;2.05;;;16.90;42.20;;;;;;5014260;28;20092;-51
2022/02/09 12:55:37;;;;;;;6.32;2.13;;;16.70;42.20;;;;;;4999142;28;20132;-55
2022/02/09 12:58:08;;;;;;;8.80;2.35;;;16.50;42.10;;;;;;5013122;28;20222;-52
2022/02/09 13:00:42;;;;;;;9.10;2.60;;;16.40;42.60;;;;;;5004722;28;20045;-53
2022/02/09 13:03:18;;;;;;;10.63;2.25;;;16.30;42.60;;;;;;5010604;28;20076;-55
2022/02/09 13:05:53;;;;;;;5.75;1.75;;;16.20;42.90;;;;;;5010996;28;20026;-66
2022/02/09 13:08:25;;;;;;;9.57;2.63;;;16.10;42.90;;;;;;4984759;28;20026;-56
2022/02/09 13:11:00;;;;;;;9.00;3.35;;;16.00;43.00;;;;;;5003495;28;20030;-56
2022/02/09 13:13:30;;;;;;;9.00;2.53;;;16.00;43.20;;;;;;5011372;28;20034;-55
2022/02/09 13:16:11;;;;;;;9.65;2.20;;;16.00;43.00;;;;;;5016114;28;20310;-55
2022/02/09 14:05:06;;;;;;;13.35;2.67;;;15.30;44.40;;;;;;5014435;28;20404;-55
2022/02/09 14:51:06;;;;;;;;;;;14.60;46.50;;;;;;5012436;28;20101;-54
2022/02/09 14:55:57;;;;;;;7.68;2.42;;;14.60;46.60;;;;;;5017334;28;20030;-52
2022/02/09 14:58:30;;;;;;;9.55;2.80;;;14.50;46.80;;;;;;5000222;28;20041;-55
2022/02/09 15:01:11;;;;;;;9.80;2.90;;;14.50;46.80;;;;;;4999809;28;20536;-59
2022/02/09 15:20:12;;;;;;;12.85;3.05;;;14.30;47.40;;;;;;4988009;28;20359;-53
2022/02/09 15:22:10;;;;;;;7.10;2.58;;;14.20;47.60;;;;;;5009833;28;20396;-53
2022/02/09 15:24:45;;;;;;;4.68;2.35;;;14.10;47.60;;;;;;5012450;28;20045;-54
2022/02/09 15:27:19;;;;;;;6.53;2.50;;;14.10;47.70;;;;;;5012802;28;20349;-53
2022/02/09 15:29:45;;;;;;;7.82;2.63;;;14.10;47.70;;;;;;5021810;28;20104;-55
2022/02/09 15:32:39;;;;;;;4.97;2.83;;;14.20;47.70;;;;;;4995413;28;20066;-54
2022/02/09 15:35:09;;;;;;;5.97;2.95;;;14.10;47.70;;;;;;5023897;28;20041;-54
2022/02/09 15:40:09;;;;;;;4.60;2.08;;;14.00;47.70;;;;;;5011756;28;20029;-56
2022/02/09 15:42:58;;;;;;;6.65;2.95;;;14.10;47.80;;;;;;5000054;28;20544;-55
2022/02/09 15:56:24;;;;;;;8.23;2.55;;;13.90;48.40;;;;;;5012765;28;20515;-56
2022/02/09 16:09:54;;;;;;;12.50;2.72;;;13.60;49.20;;;;;;5012834;28;19966;-57
2022/02/09 16:21:39;;;;;;;7.22;2.65;;;13.50;49.70;;;;;;5017408;28;20021;-55
2022/02/09 16:34:08;;;;;;;5.50;2.78;;;13.30;50.70;;;;;;5010751;28;20096;-56
2022/02/09 16:44:41;;;;;;;5.38;2.83;;;13.10;51.40;;;;;;5018689;28;20099;-56
2022/02/09 16:52:23;;;;;;;6.00;3.20;;;13.00;51.80;;;;;;5014789;28;20388;-54
2022/02/09 16:54:59;;;;;;;6.28;2.70;;;13.00;52.10;;;;;;4998352;28;20025;-53
2022/02/09 17:15:27;;;;;;;6.38;2.80;;;12.80;53.00;;;;;;5011820;28;20479;-61
2022/02/09 17:19:24;;;;;;;9.40;3.28;;;12.80;53.10;;;;;;5021728;28;19990;-61
2022/02/09 17:21:50;;;;;;;5.13;2.70;;;12.70;53.20;;;;;;5009254;28;20137;-62
2022/02/09 17:24:17;;;;;;;7.28;2.97;;;12.70;53.10;;;;;;5008437;28;20141;-57
2022/02/09 17:26:44;;;;;;;6.45;3.40;;;12.70;53.90;;;;;;4997658;28;20117;-61
2022/02/09 17:29:16;;;;;;;7.82;3.42;;;12.70;53.30;;;;;;5011526;28;20029;-61
2022/02/09 17:31:51;;;;;;;8.85;3.22;;;12.60;53.40;;;;;;5009555;28;20038;-60
2022/02/09 17:53:21;;;;;;;6.45;3.25;;;12.70;53.60;;;;;;5016310;28;20029;-59
2022/02/09 17:53:24;;;;;;;;;;;12.60;53.90;;;;;;5007324;28;20069;-58
2022/02/09 17:56:03;;;;;;;8.07;3.15;;;12.60;54.30;;;;;;5011485;28;19917;-60
2022/02/09 17:58:40;;;;;;;10.25;3.88;;;12.60;54.10;;;;;;4989162;28;20030;-57
2022/02/09 18:01:08;;;;;;;9.43;3.53;;;12.50;54.30;;;;;;5014796;28;20038;-61
2022/02/09 18:03:38;;;;;;;8.32;3.25;;;12.50;54.50;;;;;;4988325;28;20042;-58
2022/02/09 18:06:27;;;;;;;8.38;3.58;;;12.40;54.70;;;;;;4985165;28;20030;-57
2022/02/09 18:09:12;;;;;;;4.85;3.15;;;12.40;54.90;;;;;;5011292;28;20133;-55
2022/02/09 18:11:51;;;;;;;7.57;3.58;;;12.40;55.10;;;;;;4991399;28;20029;-58
2022/02/09 19:05:35;;;;;;;10.55;5.40;;;11.80;57.40;;;;;;4931474;29;20136;-58
2022/02/09 19:32:58;;;;;;;26.05;18.13;;;11.60;57.70;;;;;;4938883;29;20118;-58
2022/02/09 19:48:42;;;;;;;10.77;4.57;;;11.50;57.80;;;;;;5018031;28;20033;-60
2022/02/09 19:56:28;;;;;;;8.93;4.20;;;11.50;58.00;;;;;;5012174;28;20021;-60
2022/02/09 19:58:58;;;;;;;11.80;4.80;;;11.50;57.90;;;;;;5019872;28;20053;-61
2022/02/09 20:01:31;;;;;;;9.05;4.65;;;11.40;58.00;;;;;;5028897;28;20021;-59
2022/02/09 20:03:57;;;;;;;8.88;4.15;;;11.40;58.00;;;;;;5029279;28;20030;-60
2022/02/09 20:06:23;;;;;;;8.02;4.28;;;11.40;58.10;;;;;;5030711;28;20030;-56
2022/02/09 20:08:49;;;;;;;10.70;4.80;;;11.30;58.00;;;;;;5005232;28;20029;-59
2022/02/09 20:11:35;;;;;;;10.32;3.83;;;11.30;58.10;;;;;;5017859;28;20361;-59
2022/02/09 20:14:01;;;;;;;8.07;4.60;;;11.30;58.20;;;;;;5010542;28;20026;-58
2022/02/09 20:16:27;;;;;;;7.20;3.78;;;11.30;58.10;;;;;;4994682;28;20496;-58
2022/02/09 20:18:54;;;;;;;9.27;5.00;;;11.30;58.10;;;;;;5013555;28;20026;-58
2022/02/09 20:21:22;;;;;;;9.77;4.65;;;11.30;58.20;;;;;;5004612;28;20120;-55
2022/02/09 20:23:51;;;;;;;6.78;3.13;;;11.20;58.30;;;;;;5002443;28;20209;-57
2022/02/09 20:26:17;;;;;;;6.78;3.85;;;11.20;58.30;;;;;;5006089;28;20029;-57
2022/02/09 20:28:50;;;;;;;7.57;5.35;;;11.20;58.30;;;;;;4998703;28;20053;-57
2022/02/09 20:31:17;;;;;;;8.55;4.05;;;11.10;58.30;;;;;;5000272;28;20507;-57
2022/02/09 20:33:49;;;;;;;10.30;3.30;;;11.20;58.40;;;;;;5021399;28;20068;-54
2022/02/09 20:36:18;;;;;;;12.68;4.07;;;11.10;58.40;;;;;;5022546;28;20147;-60
2022/02/09 20:38:46;;;;;;;8.38;3.50;;;11.10;58.50;;;;;;5003318;28;20033;-54
2022/02/09 20:41:14;;;;;;;8.98;4.00;;;11.10;58.50;;;;;;5023511;28;20460;-56
2022/02/09 20:43:45;;;;;;;7.20;4.10;;;11.00;58.50;;;;;;5002748;28;20048;-56
2022/02/09 20:46:13;;;;;;;9.57;4.60;;;11.00;58.60;;;;;;4990721;28;20041;-54
2022/02/09 20:48:38;;;;;;;6.22;3.35;;;11.00;59.30;;;;;;4985064;28;20026;-54
2022/02/09 20:51:05;;;;;;;9.25;4.13;;;11.00;58.70;;;;;;4995119;28;20457;-54
2022/02/09 20:53:31;;;;;;;19.98;4.75;;;10.90;58.80;;;;;;4991373;28;20123;-56
2022/02/09 20:55:57;;;;;;;10.68;4.40;;;10.90;58.90;;;;;;4997033;28;20125;-57
2022/02/09 20:58:24;;;;;;;10.95;4.95;;;10.90;59.00;;;;;;5010017;28;20072;-51
2022/02/09 21:01:01;;;;;;;10.65;4.10;;;10.90;59.10;;;;;;5007360;28;20121;-55
2022/02/09 21:24:08;;;;;;;13.18;6.32;;;10.60;59.90;;;;;;5005291;28;20042;-62
2022/02/09 21:30:46;;;;;;;11.70;5.15;;;10.60;60.00;;;;;;4996770;28;20488;-56
2022/02/09 21:53:47;;;;;;;8.65;4.63;;;10.40;60.20;;;;;;5010822;28;20110;-56
2022/02/09 22:20:23;;;;;;;;;;;10.30;60.40;;;;;;5009464;28;20507;-57
2022/02/09 22:26:26;;;;;;;12.05;5.40;;;10.30;60.30;;;;;;5005727;28;20497;-58
2022/02/09 22:28:39;;;;;;;7.07;4.80;;;10.30;60.30;;;;;;5009852;28;20404;-55
2022/02/09 22:55:20;;;;;;;15.80;7.97;;;10.20;61.10;;;;;;5011700;28;20038;-54
2022/02/09 22:58:01;;;;;;;11.80;6.93;;;10.10;61.20;;;;;;5012694;28;20033;-58
2022/02/09 23:06:09;;;;;;;;;;;10.00;61.50;;;;;;5012662;28;20142;-56
2022/02/09 23:20:09;;;;;;;16.90;7.47;;;10.00;61.90;;;;;;5000855;28;20495;-54
2022/02/09 23:28:42;;;;;;;;;;;9.70;63.30;;;;;;5012218;28;20503;-58
